Terminal Aerodrome Forecast
Issued by NWS Memphis, TN

Home | Current Version | Previous Version | Text Only | Print | Product List | Glossary On
Versions: 1 2 3 4 5 6 7 8 9 10 11 12 13 14 15 16 17 18 19 20 21 22 23 24 25 26 27 28 29 30 31 32 33 34
000
FTUS44 KMEG 222320
TAFMEM
TAF
KMEM 222320Z 2300/2324 18004KT P6SM FEW045 FEW250
     FM231000 18004KT 6SM BR SCT012
     FM231400 18006KT P6SM BKN015
     FM231600 18008KT P6SM BKN025
     FM231800 18010KT P6SM BKN035
     FM232000 19010G16KT P6SM BKN040=

USA.gov is the U.S. government's official web portal to all federal, state and local government web resources and services.